sensor_id;sensor_type;location;lat;lon;timestamp;P1;durP1;ratioP1;P2;durP2;ratioP2
2848;SDS011;59355;52.416;13.412;2023-03-23T00:02:13;3.60;;;3.20;;
2848;SDS011;59355;52.416;13.412;2023-03-23T00:04:39;3.60;;;2.90;;
2848;SDS011;59355;52.416;13.412;2023-03-23T00:07:04;3.37;;;3.07;;
2848;SDS011;59355;52.416;13.412;2023-03-23T00:09:30;3.27;;;2.83;;
2848;SDS011;59355;52.416;13.412;2023-03-23T00:11:59;3.60;;;3.30;;
2848;SDS011;59355;52.416;13.412;2023-03-23T00:14:31;5.07;;;2.70;;
2848;SDS011;59355;52.416;13.412;2023-03-23T00:17:06;3.10;;;2.80;;
2848;SDS011;59355;52.416;13.412;2023-03-23T00:19:34;3.43;;;2.80;;
2848;SDS011;59355;52.416;13.412;2023-03-23T00:22:14;5.07;;;3.27;;
2848;SDS011;59355;52.416;13.412;2023-03-23T00:24:41;3.70;;;3.13;;
2848;SDS011;59355;52.416;13.412;2023-03-23T00:27:07;4.57;;;2.93;;
2848;SDS011;59355;52.416;13.412;2023-03-23T00:29:34;3.47;;;3.00;;
2848;SDS011;59355;52.416;13.412;2023-03-23T00:31:59;5.50;;;3.30;;
2848;SDS011;59355;52.416;13.412;2023-03-23T00:34:26;3.07;;;2.87;;
2848;SDS011;59355;52.416;13.412;2023-03-23T00:36:57;3.60;;;3.10;;
2848;SDS011;59355;52.416;13.412;2023-03-23T00:39:23;3.80;;;3.50;;
2848;SDS011;59355;52.416;13.412;2023-03-23T00:41:52;3.80;;;3.17;;
2848;SDS011;59355;52.416;13.412;2023-03-23T00:44:18;4.03;;;3.10;;
2848;SDS011;59355;52.416;13.412;2023-03-23T00:46:43;5.00;;;3.90;;
2848;SDS011;59355;52.416;13.412;2023-03-23T00:49:13;3.40;;;3.10;;
2848;SDS011;59355;52.416;13.412;2023-03-23T00:51:40;5.93;;;3.37;;
2848;SDS011;59355;52.416;13.412;2023-03-23T00:54:06;3.60;;;3.30;;
2848;SDS011;59355;52.416;13.412;2023-03-23T00:56:32;4.83;;;3.60;;
2848;SDS011;59355;52.416;13.412;2023-03-23T00:58:58;3.30;;;3.00;;
2848;SDS011;59355;52.416;13.412;2023-03-23T01:01:23;4.50;;;3.37;;
2848;SDS011;59355;52.416;13.412;2023-03-23T01:03:48;4.97;;;3.13;;
2848;SDS011;59355;52.416;13.412;2023-03-23T01:06:14;4.23;;;2.90;;
2848;SDS011;59355;52.416;13.412;2023-03-23T01:08:40;3.60;;;3.30;;
2848;SDS011;59355;52.416;13.412;2023-03-23T01:11:10;3.57;;;2.93;;
2848;SDS011;59355;52.416;13.412;2023-03-23T01:13:39;3.20;;;2.90;;
2848;SDS011;59355;52.416;13.412;2023-03-23T01:16:06;3.30;;;3.00;;
2848;SDS011;59355;52.416;13.412;2023-03-23T01:18:31;4.10;;;3.33;;
2848;SDS011;59355;52.416;13.412;2023-03-23T01:20:57;3.83;;;3.53;;
2848;SDS011;59355;52.416;13.412;2023-03-23T01:23:22;4.53;;;3.40;;
2848;SDS011;59355;52.416;13.412;2023-03-23T01:25:47;4.40;;;3.53;;
2848;SDS011;59355;52.416;13.412;2023-03-23T01:28:14;3.47;;;3.17;;
2848;SDS011;59355;52.416;13.412;2023-03-23T01:30:39;5.63;;;3.60;;
2848;SDS011;59355;52.416;13.412;2023-03-23T01:33:05;4.13;;;3.60;;
2848;SDS011;59355;52.416;13.412;2023-03-23T01:35:30;4.60;;;3.40;;
2848;SDS011;59355;52.416;13.412;2023-03-23T01:37:55;4.37;;;3.93;;
2848;SDS011;59355;52.416;13.412;2023-03-23T01:40:21;3.97;;;3.47;;
2848;SDS011;59355;52.416;13.412;2023-03-23T01:42:46;3.90;;;3.60;;
2848;SDS011;59355;52.416;13.412;2023-03-23T01:45:21;4.97;;;3.60;;
2848;SDS011;59355;52.416;13.412;2023-03-23T01:47:56;4.30;;;3.40;;
2848;SDS011;59355;52.416;13.412;2023-03-23T01:50:25;4.17;;;3.77;;
2848;SDS011;59355;52.416;13.412;2023-03-23T01:52:52;4.80;;;3.50;;
2848;SDS011;59355;52.416;13.412;2023-03-23T01:55:18;4.60;;;3.20;;
2848;SDS011;59355;52.416;13.412;2023-03-23T01:57:44;3.80;;;3.43;;
2848;SDS011;59355;52.416;13.412;2023-03-23T02:00:10;4.10;;;3.70;;
2848;SDS011;59355;52.416;13.412;2023-03-23T02:02:40;3.73;;;3.07;;
2848;SDS011;59355;52.416;13.412;2023-03-23T02:05:08;4.87;;;3.43;;
2848;SDS011;59355;52.416;13.412;2023-03-23T02:07:36;5.23;;;3.50;;
2848;SDS011;59355;52.416;13.412;2023-03-23T02:10:02;4.10;;;3.57;;
2848;SDS011;59355;52.416;13.412;2023-03-23T02:12:27;3.90;;;3.43;;
2848;SDS011;59355;52.416;13.412;2023-03-23T02:14:52;3.40;;;3.10;;
2848;SDS011;59355;52.416;13.412;2023-03-23T02:17:22;4.20;;;3.33;;
2848;SDS011;59355;52.416;13.412;2023-03-23T02:20:01;3.80;;;3.43;;
2848;SDS011;59355;52.416;13.412;2023-03-23T02:22:39;3.90;;;3.50;;
2848;SDS011;59355;52.416;13.412;2023-03-23T02:28:02;4.20;;;3.20;;
2848;SDS011;59355;52.416;13.412;2023-03-23T02:30:49;4.37;;;3.67;;
2848;SDS011;59355;52.416;13.412;2023-03-23T02:33:28;4.00;;;3.50;;
2848;SDS011;59355;52.416;13.412;2023-03-23T02:35:58;4.50;;;3.47;;
2848;SDS011;59355;52.416;13.412;2023-03-23T02:38:28;4.20;;;3.90;;
2848;SDS011;59355;52.416;13.412;2023-03-23T02:40:56;5.27;;;3.80;;
2848;SDS011;59355;52.416;13.412;2023-03-23T02:43:25;3.73;;;3.13;;
2848;SDS011;59355;52.416;13.412;2023-03-23T02:45:52;3.97;;;3.57;;
2848;SDS011;59355;52.416;13.412;2023-03-23T02:48:19;4.10;;;3.60;;
2848;SDS011;59355;52.416;13.412;2023-03-23T02:50:48;3.83;;;3.43;;
2848;SDS011;59355;52.416;13.412;2023-03-23T02:53:16;3.90;;;3.30;;
2848;SDS011;59355;52.416;13.412;2023-03-23T02:55:43;3.70;;;3.40;;
2848;SDS011;59355;52.416;13.412;2023-03-23T02:58:10;4.70;;;3.53;;
2848;SDS011;59355;52.416;13.412;2023-03-23T03:00:37;3.70;;;3.40;;
2848;SDS011;59355;52.416;13.412;2023-03-23T03:03:04;4.50;;;3.10;;
2848;SDS011;59355;52.416;13.412;2023-03-23T03:05:38;6.90;;;3.50;;
2848;SDS011;59355;52.416;13.412;2023-03-23T03:08:13;3.93;;;3.53;;
2848;SDS011;59355;52.416;13.412;2023-03-23T03:10:49;5.60;;;3.03;;
2848;SDS011;59355;52.416;13.412;2023-03-23T03:13:24;3.73;;;3.43;;
2848;SDS011;59355;52.416;13.412;2023-03-23T03:19:03;3.30;;;2.90;;
2848;SDS011;59355;52.416;13.412;2023-03-23T03:21:33;4.10;;;3.40;;
2848;SDS011;59355;52.416;13.412;2023-03-23T03:24:01;3.53;;;3.20;;
2848;SDS011;59355;52.416;13.412;2023-03-23T03:26:29;3.30;;;3.00;;
2848;SDS011;59355;52.416;13.412;2023-03-23T03:28:55;4.27;;;3.23;;
2848;SDS011;59355;52.416;13.412;2023-03-23T03:31:26;3.57;;;3.27;;
2848;SDS011;59355;52.416;13.412;2023-03-23T03:33:53;2.67;;;2.47;;
2848;SDS011;59355;52.416;13.412;2023-03-23T03:36:23;3.17;;;2.87;;
2848;SDS011;59355;52.416;13.412;2023-03-23T03:38:51;3.30;;;3.00;;
2848;SDS011;59355;52.416;13.412;2023-03-23T03:41:17;5.30;;;3.20;;
2848;SDS011;59355;52.416;13.412;2023-03-23T03:43:43;3.97;;;2.83;;
2848;SDS011;59355;52.416;13.412;2023-03-23T03:46:08;3.67;;;3.03;;
2848;SDS011;59355;52.416;13.412;2023-03-23T03:48:33;3.40;;;3.10;;
2848;SDS011;59355;52.416;13.412;2023-03-23T03:50:59;4.67;;;3.20;;
2848;SDS011;59355;52.416;13.412;2023-03-23T03:53:25;2.80;;;2.50;;
2848;SDS011;59355;52.416;13.412;2023-03-23T03:55:51;4.27;;;3.63;;
2848;SDS011;59355;52.416;13.412;2023-03-23T03:58:20;12.00;;;2.90;;
2848;SDS011;59355;52.416;13.412;2023-03-23T04:00:45;3.40;;;2.90;;
2848;SDS011;59355;52.416;13.412;2023-03-23T04:03:12;3.10;;;2.80;;
2848;SDS011;59355;52.416;13.412;2023-03-23T04:05:38;4.20;;;3.47;;
2848;SDS011;59355;52.416;13.412;2023-03-23T04:08:03;3.43;;;3.03;;
2848;SDS011;59355;52.416;13.412;2023-03-23T04:10:29;4.23;;;3.13;;
2848;SDS011;59355;52.416;13.412;2023-03-23T04:12:55;4.97;;;3.03;;
2848;SDS011;59355;52.416;13.412;2023-03-23T04:15:21;3.80;;;3.10;;
2848;SDS011;59355;52.416;13.412;2023-03-23T04:17:46;3.33;;;3.03;;
2848;SDS011;59355;52.416;13.412;2023-03-23T04:20:11;3.53;;;2.80;;
2848;SDS011;59355;52.416;13.412;2023-03-23T04:22:42;4.57;;;4.07;;
2848;SDS011;59355;52.416;13.412;2023-03-23T04:25:09;4.13;;;3.73;;
2848;SDS011;59355;52.416;13.412;2023-03-23T04:27:36;3.90;;;3.50;;
2848;SDS011;59355;52.416;13.412;2023-03-23T04:30:02;4.10;;;3.30;;
2848;SDS011;59355;52.416;13.412;2023-03-23T04:32:29;4.13;;;3.40;;
2848;SDS011;59355;52.416;13.412;2023-03-23T04:34:56;3.93;;;3.27;;
2848;SDS011;59355;52.416;13.412;2023-03-23T04:37:23;4.40;;;2.80;;
2848;SDS011;59355;52.416;13.412;2023-03-23T04:39:50;3.53;;;3.23;;
2848;SDS011;59355;52.416;13.412;2023-03-23T04:42:24;3.17;;;2.90;;
2848;SDS011;59355;52.416;13.412;2023-03-23T04:44:50;5.40;;;3.03;;
2848;SDS011;59355;52.416;13.412;2023-03-23T04:47:18;4.83;;;2.90;;
2848;SDS011;59355;52.416;13.412;2023-03-23T04:49:44;3.90;;;2.77;;
2848;SDS011;59355;52.416;13.412;2023-03-23T04:52:09;4.00;;;3.50;;
2848;SDS011;59355;52.416;13.412;2023-03-23T04:54:35;2.90;;;2.70;;
2848;SDS011;59355;52.416;13.412;2023-03-23T04:57:00;3.10;;;2.80;;
2848;SDS011;59355;52.416;13.412;2023-03-23T04:59:25;3.33;;;3.03;;
2848;SDS011;59355;52.416;13.412;2023-03-23T05:01:52;7.10;;;2.67;;
2848;SDS011;59355;52.416;13.412;2023-03-23T05:04:18;3.30;;;3.00;;
2848;SDS011;59355;52.416;13.412;2023-03-23T05:06:43;5.13;;;2.93;;
2848;SDS011;59355;52.416;13.412;2023-03-23T05:09:10;3.80;;;3.03;;
2848;SDS011;59355;52.416;13.412;2023-03-23T05:11:35;3.97;;;2.80;;
2848;SDS011;59355;52.416;13.412;2023-03-23T05:14:02;3.00;;;2.63;;
2848;SDS011;59355;52.416;13.412;2023-03-23T05:16:28;3.33;;;3.03;;
2848;SDS011;59355;52.416;13.412;2023-03-23T05:18:55;4.10;;;2.93;;
2848;SDS011;59355;52.416;13.412;2023-03-23T05:21:22;4.60;;;3.37;;
2848;SDS011;59355;52.416;13.412;2023-03-23T05:23:47;3.57;;;2.77;;
2848;SDS011;59355;52.416;13.412;2023-03-23T05:26:19;4.43;;;3.30;;
2848;SDS011;59355;52.416;13.412;2023-03-23T05:28:45;3.70;;;3.40;;
2848;SDS011;59355;52.416;13.412;2023-03-23T05:31:10;4.60;;;3.30;;
2848;SDS011;59355;52.416;13.412;2023-03-23T05:33:36;4.57;;;4.17;;
2848;SDS011;59355;52.416;13.412;2023-03-23T05:36:01;3.67;;;3.30;;
2848;SDS011;59355;52.416;13.412;2023-03-23T05:38:29;4.50;;;3.73;;
2848;SDS011;59355;52.416;13.412;2023-03-23T05:40:57;4.67;;;3.67;;
2848;SDS011;59355;52.416;13.412;2023-03-23T05:43:26;5.83;;;3.77;;
2848;SDS011;59355;52.416;13.412;2023-03-23T05:45:51;4.07;;;3.67;;
2848;SDS011;59355;52.416;13.412;2023-03-23T05:48:16;4.37;;;3.97;;
2848;SDS011;59355;52.416;13.412;2023-03-23T05:50:42;4.57;;;3.50;;
2848;SDS011;59355;52.416;13.412;2023-03-23T05:53:07;3.70;;;3.40;;
2848;SDS011;59355;52.416;13.412;2023-03-23T05:55:32;7.30;;;2.97;;
2848;SDS011;59355;52.416;13.412;2023-03-23T05:57:58;3.87;;;3.20;;
2848;SDS011;59355;52.416;13.412;2023-03-23T06:00:23;4.67;;;3.27;;
2848;SDS011;59355;52.416;13.412;2023-03-23T06:02:49;4.17;;;3.77;;
2848;SDS011;59355;52.416;13.412;2023-03-23T06:05:16;3.93;;;3.53;;
2848;SDS011;59355;52.416;13.412;2023-03-23T06:07:42;5.53;;;3.80;;
2848;SDS011;59355;52.416;13.412;2023-03-23T06:10:07;3.43;;;3.10;;
2848;SDS011;59355;52.416;13.412;2023-03-23T06:12:34;4.23;;;2.90;;
2848;SDS011;59355;52.416;13.412;2023-03-23T06:15:00;4.83;;;3.23;;
2848;SDS011;59355;52.416;13.412;2023-03-23T06:17:25;3.57;;;3.10;;
2848;SDS011;59355;52.416;13.412;2023-03-23T06:19:51;3.40;;;2.70;;
2848;SDS011;59355;52.416;13.412;2023-03-23T06:22:16;4.03;;;2.77;;
2848;SDS011;59355;52.416;13.412;2023-03-23T06:24:42;5.50;;;3.40;;
2848;SDS011;59355;52.416;13.412;2023-03-23T06:27:09;3.93;;;3.50;;
2848;SDS011;59355;52.416;13.412;2023-03-23T06:29:34;4.63;;;3.47;;
2848;SDS011;59355;52.416;13.412;2023-03-23T06:32:00;3.73;;;3.43;;
2848;SDS011;59355;52.416;13.412;2023-03-23T06:34:27;4.13;;;3.73;;
2848;SDS011;59355;52.416;13.412;2023-03-23T06:36:52;3.50;;;3.20;;
2848;SDS011;59355;52.416;13.412;2023-03-23T06:39:18;6.03;;;3.57;;
2848;SDS011;59355;52.416;13.412;2023-03-23T06:41:44;4.27;;;3.00;;
2848;SDS011;59355;52.416;13.412;2023-03-23T06:44:09;5.60;;;2.90;;
2848;SDS011;59355;52.416;13.412;2023-03-23T06:46:38;4.03;;;3.40;;
2848;SDS011;59355;52.416;13.412;2023-03-23T06:49:03;5.00;;;3.57;;
2848;SDS011;59355;52.416;13.412;2023-03-23T06:51:28;4.00;;;3.10;;
2848;SDS011;59355;52.416;13.412;2023-03-23T06:53:54;4.10;;;3.80;;
2848;SDS011;59355;52.416;13.412;2023-03-23T06:56:19;5.67;;;3.20;;
2848;SDS011;59355;52.416;13.412;2023-03-23T06:58:45;4.03;;;3.37;;
2848;SDS011;59355;52.416;13.412;2023-03-23T07:01:10;5.10;;;3.70;;
2848;SDS011;59355;52.416;13.412;2023-03-23T07:03:36;4.10;;;3.67;;
2848;SDS011;59355;52.416;13.412;2023-03-23T07:06:01;4.93;;;3.50;;
2848;SDS011;59355;52.416;13.412;2023-03-23T07:08:28;5.20;;;3.73;;
2848;SDS011;59355;52.416;13.412;2023-03-23T07:10:53;3.83;;;3.20;;
2848;SDS011;59355;52.416;13.412;2023-03-23T07:13:20;3.87;;;3.47;;
2848;SDS011;59355;52.416;13.412;2023-03-23T07:15:46;4.10;;;3.70;;
2848;SDS011;59355;52.416;13.412;2023-03-23T07:18:11;4.90;;;3.60;;
2848;SDS011;59355;52.416;13.412;2023-03-23T07:20:37;6.80;;;3.63;;
2848;SDS011;59355;52.416;13.412;2023-03-23T07:23:02;5.47;;;4.23;;
2848;SDS011;59355;52.416;13.412;2023-03-23T07:25:30;4.87;;;4.00;;
2848;SDS011;59355;52.416;13.412;2023-03-23T07:27:55;3.57;;;3.20;;
2848;SDS011;59355;52.416;13.412;2023-03-23T07:30:21;5.17;;;3.97;;
2848;SDS011;59355;52.416;13.412;2023-03-23T07:32:46;4.00;;;3.53;;
2848;SDS011;59355;52.416;13.412;2023-03-23T07:35:11;4.63;;;3.33;;
2848;SDS011;59355;52.416;13.412;2023-03-23T07:37:37;3.10;;;2.90;;
2848;SDS011;59355;52.416;13.412;2023-03-23T07:40:03;4.67;;;3.67;;
2848;SDS011;59355;52.416;13.412;2023-03-23T07:42:39;4.10;;;3.70;;
2848;SDS011;59355;52.416;13.412;2023-03-23T07:45:06;3.93;;;3.53;;
2848;SDS011;59355;52.416;13.412;2023-03-23T07:47:32;3.83;;;3.50;;
2848;SDS011;59355;52.416;13.412;2023-03-23T07:49:57;4.30;;;3.63;;
2848;SDS011;59355;52.416;13.412;2023-03-23T07:52:23;5.80;;;3.37;;
2848;SDS011;59355;52.416;13.412;2023-03-23T07:54:48;5.80;;;3.90;;
2848;SDS011;59355;52.416;13.412;2023-03-23T07:57:14;4.30;;;3.90;;
2848;SDS011;59355;52.416;13.412;2023-03-23T07:59:39;5.60;;;4.10;;
2848;SDS011;59355;52.416;13.412;2023-03-23T08:02:05;5.27;;;4.20;;
2848;SDS011;59355;52.416;13.412;2023-03-23T08:04:34;3.70;;;3.40;;
2848;SDS011;59355;52.416;13.412;2023-03-23T08:07:02;3.67;;;3.27;;
2848;SDS011;59355;52.416;13.412;2023-03-23T08:09:27;4.07;;;3.60;;
2848;SDS011;59355;52.416;13.412;2023-03-23T08:11:53;3.90;;;3.57;;
2848;SDS011;59355;52.416;13.412;2023-03-23T08:14:18;3.63;;;3.33;;
2848;SDS011;59355;52.416;13.412;2023-03-23T08:16:43;6.93;;;3.67;;
2848;SDS011;59355;52.416;13.412;2023-03-23T08:19:09;6.17;;;3.67;;
2848;SDS011;59355;52.416;13.412;2023-03-23T08:21:34;4.00;;;3.40;;
2848;SDS011;59355;52.416;13.412;2023-03-23T08:24:00;3.67;;;3.37;;
2848;SDS011;59355;52.416;13.412;2023-03-23T08:26:26;4.80;;;3.60;;
2848;SDS011;59355;52.416;13.412;2023-03-23T08:28:52;4.80;;;3.70;;
2848;SDS011;59355;52.416;13.412;2023-03-23T08:31:18;4.43;;;4.03;;
2848;SDS011;59355;52.416;13.412;2023-03-23T08:33:43;4.60;;;3.20;;
2848;SDS011;59355;52.416;13.412;2023-03-23T08:36:09;4.10;;;3.70;;
2848;SDS011;59355;52.416;13.412;2023-03-23T08:38:35;4.10;;;3.70;;
2848;SDS011;59355;52.416;13.412;2023-03-23T08:41:01;3.90;;;3.50;;
2848;SDS011;59355;52.416;13.412;2023-03-23T08:43:29;3.87;;;3.57;;
2848;SDS011;59355;52.416;13.412;2023-03-23T08:45:57;4.50;;;4.00;;
2848;SDS011;59355;52.416;13.412;2023-03-23T08:48:22;3.93;;;3.57;;
2848;SDS011;59355;52.416;13.412;2023-03-23T08:50:48;5.03;;;4.40;;
2848;SDS011;59355;52.416;13.412;2023-03-23T08:53:14;4.00;;;3.40;;
2848;SDS011;59355;52.416;13.412;2023-03-23T08:55:39;4.07;;;3.67;;
2848;SDS011;59355;52.416;13.412;2023-03-23T08:58:04;5.70;;;3.47;;
2848;SDS011;59355;52.416;13.412;2023-03-23T09:00:30;3.50;;;3.20;;
2848;SDS011;59355;52.416;13.412;2023-03-23T09:02:55;3.50;;;3.20;;
2848;SDS011;59355;52.416;13.412;2023-03-23T09:05:22;3.97;;;3.60;;
2848;SDS011;59355;52.416;13.412;2023-03-23T09:07:53;3.10;;;2.57;;
2848;SDS011;59355;52.416;13.412;2023-03-23T09:10:23;3.20;;;2.90;;
2848;SDS011;59355;52.416;13.412;2023-03-23T09:12:49;3.50;;;3.20;;
2848;SDS011;59355;52.416;13.412;2023-03-23T09:15:15;3.80;;;3.40;;
2848;SDS011;59355;52.416;13.412;2023-03-23T09:17:43;3.23;;;2.67;;
2848;SDS011;59355;52.416;13.412;2023-03-23T09:20:10;2.63;;;2.43;;
2848;SDS011;59355;52.416;13.412;2023-03-23T09:22:38;3.80;;;3.50;;
2848;SDS011;59355;52.416;13.412;2023-03-23T09:25:04;4.57;;;3.70;;
2848;SDS011;59355;52.416;13.412;2023-03-23T09:27:31;3.63;;;3.33;;
2848;SDS011;59355;52.416;13.412;2023-03-23T09:29:56;3.10;;;2.80;;
2848;SDS011;59355;52.416;13.412;2023-03-23T09:32:21;4.37;;;3.40;;
2848;SDS011;59355;52.416;13.412;2023-03-23T09:34:47;4.87;;;3.30;;
2848;SDS011;59355;52.416;13.412;2023-03-23T09:37:13;5.00;;;3.23;;
2848;SDS011;59355;52.416;13.412;2023-03-23T09:39:39;3.33;;;3.03;;
2848;SDS011;59355;52.416;13.412;2023-03-23T09:42:08;3.00;;;2.70;;
2848;SDS011;59355;52.416;13.412;2023-03-23T09:50:42;4.80;;;2.90;;
2848;SDS011;59355;52.416;13.412;2023-03-23T09:53:11;3.27;;;2.97;;
2848;SDS011;59355;52.416;13.412;2023-03-23T09:55:40;3.47;;;2.90;;
2848;SDS011;59355;52.416;13.412;2023-03-23T09:58:10;3.13;;;2.90;;
2848;SDS011;59355;52.416;13.412;2023-03-23T10:00:41;5.40;;;3.10;;
2848;SDS011;59355;52.416;13.412;2023-03-23T10:05:51;3.50;;;2.47;;
2848;SDS011;59355;52.416;13.412;2023-03-23T10:08:27;2.90;;;2.40;;
2848;SDS011;59355;52.416;13.412;2023-03-23T10:16:37;2.97;;;2.50;;
2848;SDS011;59355;52.416;13.412;2023-03-23T10:21:38;3.77;;;2.93;;
2848;SDS011;59355;52.416;13.412;2023-03-23T10:24:09;3.10;;;2.50;;
2848;SDS011;59355;52.416;13.412;2023-03-23T10:29:34;6.00;;;3.43;;
2848;SDS011;59355;52.416;13.412;2023-03-23T10:32:19;2.70;;;2.50;;
2848;SDS011;59355;52.416;13.412;2023-03-23T10:34:50;2.90;;;2.60;;
2848;SDS011;59355;52.416;13.412;2023-03-23T10:37:40;3.37;;;2.60;;
2848;SDS011;59355;52.416;13.412;2023-03-23T10:40:05;2.20;;;2.00;;
2848;SDS011;59355;52.416;13.412;2023-03-23T10:42:36;3.97;;;2.77;;
2848;SDS011;59355;52.416;13.412;2023-03-23T10:45:36;2.40;;;2.20;;
2848;SDS011;59355;52.416;13.412;2023-03-23T10:48:19;2.50;;;2.30;;
2848;SDS011;59355;52.416;13.412;2023-03-23T10:50:50;4.27;;;2.47;;
2848;SDS011;59355;52.416;13.412;2023-03-23T10:53:19;2.53;;;2.33;;
2848;SDS011;59355;52.416;13.412;2023-03-23T10:55:46;2.80;;;2.50;;
2848;SDS011;59355;52.416;13.412;2023-03-23T10:58:22;3.83;;;2.93;;
2848;SDS011;59355;52.416;13.412;2023-03-23T11:00:49;5.33;;;2.80;;
2848;SDS011;59355;52.416;13.412;2023-03-23T11:05:53;2.70;;;2.50;;
2848;SDS011;59355;52.416;13.412;2023-03-23T11:08:32;2.97;;;2.70;;
2848;SDS011;59355;52.416;13.412;2023-03-23T11:11:21;2.30;;;2.10;;
2848;SDS011;59355;52.416;13.412;2023-03-23T11:13:57;3.60;;;2.60;;
2848;SDS011;59355;52.416;13.412;2023-03-23T11:16:26;3.80;;;2.60;;
2848;SDS011;59355;52.416;13.412;2023-03-23T11:18:53;3.93;;;2.77;;
2848;SDS011;59355;52.416;13.412;2023-03-23T11:21:19;4.43;;;2.43;;
2848;SDS011;59355;52.416;13.412;2023-03-23T11:23:48;5.90;;;3.90;;
2848;SDS011;59355;52.416;13.412;2023-03-23T11:26:26;2.90;;;2.40;;
2848;SDS011;59355;52.416;13.412;2023-03-23T11:28:55;2.60;;;2.40;;
2848;SDS011;59355;52.416;13.412;2023-03-23T11:31:27;4.00;;;2.83;;
2848;SDS011;59355;52.416;13.412;2023-03-23T11:34:03;3.27;;;2.97;;
2848;SDS011;59355;52.416;13.412;2023-03-23T11:36:38;3.50;;;2.90;;
2848;SDS011;59355;52.416;13.412;2023-03-23T11:39:22;2.53;;;2.30;;
2848;SDS011;59355;52.416;13.412;2023-03-23T11:41:51;3.50;;;2.90;;
2848;SDS011;59355;52.416;13.412;2023-03-23T11:44:17;5.90;;;2.50;;
2848;SDS011;59355;52.416;13.412;2023-03-23T11:46:51;4.60;;;2.87;;
2848;SDS011;59355;52.416;13.412;2023-03-23T11:50:08;2.80;;;2.60;;
2848;SDS011;59355;52.416;13.412;2023-03-23T11:52:25;5.43;;;2.60;;
2848;SDS011;59355;52.416;13.412;2023-03-23T11:54:59;5.17;;;2.97;;
2848;SDS011;59355;52.416;13.412;2023-03-23T11:57:30;3.50;;;2.80;;
2848;SDS011;59355;52.416;13.412;2023-03-23T11:59:57;2.73;;;2.43;;
2848;SDS011;59355;52.416;13.412;2023-03-23T12:02:37;4.10;;;2.30;;
2848;SDS011;59355;52.416;13.412;2023-03-23T12:15:38;2.97;;;2.37;;
2848;SDS011;59355;52.416;13.412;2023-03-23T12:26:32;2.50;;;2.30;;
2848;SDS011;59355;52.416;13.412;2023-03-23T12:34:56;2.20;;;2.00;;
2848;SDS011;59355;52.416;13.412;2023-03-23T12:46:27;3.53;;;2.77;;
2848;SDS011;59355;52.416;13.412;2023-03-23T12:57:16;3.27;;;2.77;;
2848;SDS011;59355;52.416;13.412;2023-03-23T13:00:05;3.20;;;2.53;;
2848;SDS011;59355;52.416;13.412;2023-03-23T13:02:44;3.57;;;2.40;;
2848;SDS011;59355;52.416;13.412;2023-03-23T13:05:26;4.80;;;2.33;;
2848;SDS011;59355;52.416;13.412;2023-03-23T13:08:02;3.17;;;2.50;;
2848;SDS011;59355;52.416;13.412;2023-03-23T13:10:32;4.73;;;2.50;;
2848;SDS011;59355;52.416;13.412;2023-03-23T13:13:00;4.30;;;2.63;;
2848;SDS011;59355;52.416;13.412;2023-03-23T13:18:12;2.80;;;2.47;;
2848;SDS011;59355;52.416;13.412;2023-03-23T13:20:59;3.77;;;2.60;;
2848;SDS011;59355;52.416;13.412;2023-03-23T13:26:17;4.03;;;2.60;;
2848;SDS011;59355;52.416;13.412;2023-03-23T13:28:54;4.00;;;3.03;;
2848;SDS011;59355;52.416;13.412;2023-03-23T13:31:32;3.40;;;3.10;;
2848;SDS011;59355;52.416;13.412;2023-03-23T13:34:00;5.20;;;2.60;;
2848;SDS011;59355;52.416;13.412;2023-03-23T13:36:36;2.30;;;2.10;;
2848;SDS011;59355;52.416;13.412;2023-03-23T13:39:04;3.43;;;2.40;;
2848;SDS011;59355;52.416;13.412;2023-03-23T13:41:32;3.03;;;2.73;;
2848;SDS011;59355;52.416;13.412;2023-03-23T13:44:05;3.03;;;2.73;;
2848;SDS011;59355;52.416;13.412;2023-03-23T13:46:40;2.93;;;2.63;;
2848;SDS011;59355;52.416;13.412;2023-03-23T13:51:47;3.70;;;2.60;;
2848;SDS011;59355;52.416;13.412;2023-03-23T13:54:31;2.87;;;2.50;;
2848;SDS011;59355;52.416;13.412;2023-03-23T14:00:32;2.97;;;2.17;;
2848;SDS011;59355;52.416;13.412;2023-03-23T14:03:01;2.87;;;2.57;;
2848;SDS011;59355;52.416;13.412;2023-03-23T14:05:37;4.17;;;2.33;;
2848;SDS011;59355;52.416;13.412;2023-03-23T14:10:39;2.80;;;2.30;;
2848;SDS011;59355;52.416;13.412;2023-03-23T14:13:10;4.10;;;2.20;;
2848;SDS011;59355;52.416;13.412;2023-03-23T14:15:42;4.73;;;2.70;;
2848;SDS011;59355;52.416;13.412;2023-03-23T14:18:12;4.20;;;2.63;;
2848;SDS011;59355;52.416;13.412;2023-03-23T14:20:40;3.50;;;2.50;;
2848;SDS011;59355;52.416;13.412;2023-03-23T14:23:12;2.67;;;2.40;;
2848;SDS011;59355;52.416;13.412;2023-03-23T14:25:40;3.50;;;2.93;;
2848;SDS011;59355;52.416;13.412;2023-03-23T14:28:15;3.17;;;2.87;;
2848;SDS011;59355;52.416;13.412;2023-03-23T14:30:42;3.43;;;2.73;;
2848;SDS011;59355;52.416;13.412;2023-03-23T14:33:07;5.33;;;2.80;;
2848;SDS011;59355;52.416;13.412;2023-03-23T14:35:37;3.60;;;2.60;;
2848;SDS011;59355;52.416;13.412;2023-03-23T14:38:04;2.63;;;2.40;;
2848;SDS011;59355;52.416;13.412;2023-03-23T14:40:30;4.50;;;2.90;;
2848;SDS011;59355;52.416;13.412;2023-03-23T14:42:56;3.17;;;2.63;;
2848;SDS011;59355;52.416;13.412;2023-03-23T14:45:22;3.10;;;2.27;;
2848;SDS011;59355;52.416;13.412;2023-03-23T14:47:49;2.50;;;2.30;;
2848;SDS011;59355;52.416;13.412;2023-03-23T14:50:30;3.33;;;2.50;;
2848;SDS011;59355;52.416;13.412;2023-03-23T14:53:16;3.40;;;2.80;;
2848;SDS011;59355;52.416;13.412;2023-03-23T14:55:46;3.23;;;2.70;;
2848;SDS011;59355;52.416;13.412;2023-03-23T14:58:13;5.23;;;2.67;;
2848;SDS011;59355;52.416;13.412;2023-03-23T15:00:40;3.50;;;3.00;;
2848;SDS011;59355;52.416;13.412;2023-03-23T15:03:10;3.93;;;2.70;;
2848;SDS011;59355;52.416;13.412;2023-03-23T15:05:40;3.57;;;3.10;;
2848;SDS011;59355;52.416;13.412;2023-03-23T15:08:11;3.50;;;2.63;;
2848;SDS011;59355;52.416;13.412;2023-03-23T15:10:50;4.07;;;3.00;;
2848;SDS011;59355;52.416;13.412;2023-03-23T15:13:16;6.63;;;2.70;;
2848;SDS011;59355;52.416;13.412;2023-03-23T15:15:42;2.67;;;2.30;;
2848;SDS011;59355;52.416;13.412;2023-03-23T15:18:14;3.60;;;2.20;;
2848;SDS011;59355;52.416;13.412;2023-03-23T15:20:51;2.30;;;2.00;;
2848;SDS011;59355;52.416;13.412;2023-03-23T15:23:17;3.20;;;2.30;;
2848;SDS011;59355;52.416;13.412;2023-03-23T15:25:47;6.20;;;2.70;;
2848;SDS011;59355;52.416;13.412;2023-03-23T15:28:19;5.43;;;2.60;;
2848;SDS011;59355;52.416;13.412;2023-03-23T15:30:50;6.50;;;2.30;;
2848;SDS011;59355;52.416;13.412;2023-03-23T15:33:17;2.50;;;2.30;;
2848;SDS011;59355;52.416;13.412;2023-03-23T15:35:47;3.83;;;2.03;;
2848;SDS011;59355;52.416;13.412;2023-03-23T15:38:15;2.70;;;2.13;;
2848;SDS011;59355;52.416;13.412;2023-03-23T15:40:43;2.63;;;2.03;;
2848;SDS011;59355;52.416;13.412;2023-03-23T15:46:01;3.53;;;2.63;;
2848;SDS011;59355;52.416;13.412;2023-03-23T15:49:04;3.57;;;2.10;;
2848;SDS011;59355;52.416;13.412;2023-03-23T15:51:33;2.77;;;2.20;;
2848;SDS011;59355;52.416;13.412;2023-03-23T15:53:59;3.20;;;2.13;;
2848;SDS011;59355;52.416;13.412;2023-03-23T15:56:24;2.20;;;1.97;;
2848;SDS011;59355;52.416;13.412;2023-03-23T15:58:50;3.20;;;2.10;;
2848;SDS011;59355;52.416;13.412;2023-03-23T16:01:20;3.73;;;2.00;;
2848;SDS011;59355;52.416;13.412;2023-03-23T16:03:48;3.93;;;1.90;;
2848;SDS011;59355;52.416;13.412;2023-03-23T16:06:15;2.87;;;2.40;;
2848;SDS011;59355;52.416;13.412;2023-03-23T16:08:42;3.60;;;2.13;;
2848;SDS011;59355;52.416;13.412;2023-03-23T16:11:11;2.90;;;2.60;;
2848;SDS011;59355;52.416;13.412;2023-03-23T16:13:37;5.00;;;2.27;;
2848;SDS011;59355;52.416;13.412;2023-03-23T16:16:02;2.80;;;2.13;;
2848;SDS011;59355;52.416;13.412;2023-03-23T16:18:29;6.83;;;2.77;;
2848;SDS011;59355;52.416;13.412;2023-03-23T16:20:55;3.60;;;2.53;;
2848;SDS011;59355;52.416;13.412;2023-03-23T16:23:20;3.83;;;2.57;;
2848;SDS011;59355;52.416;13.412;2023-03-23T16:25:46;3.97;;;3.40;;